createdAt,value
2024-02-22T00:00:31.980Z,79.89
2024-02-22T00:03:22.493Z,79.84
2024-02-22T00:05:51.889Z,79.66
2024-02-22T00:08:23.310Z,79.49
2024-02-22T00:10:52.926Z,79.34
2024-02-22T00:13:23.777Z,79.33
2024-02-22T00:15:53.181Z,79.14
2024-02-22T00:18:24.492Z,78.87
2024-02-22T00:20:54.125Z,78.62
2024-02-22T00:23:24.789Z,78.52
2024-02-22T00:25:54.193Z,78.35
2024-02-22T00:28:25.300Z,78.08
2024-02-22T00:30:54.716Z,77.74
2024-02-22T00:33:25.233Z,77.61
2024-02-22T00:35:54.533Z,77.41
2024-02-22T00:38:26.570Z,77.13
2024-02-22T00:40:56.044Z,76.71
2024-02-22T00:43:27.108Z,76.72
2024-02-22T00:45:56.856Z,76.34
2024-02-22T00:48:27.796Z,75.98
2024-02-22T00:50:57.309Z,75.89
2024-02-22T00:53:28.165Z,75.68
2024-02-22T00:55:57.574Z,75.58
2024-02-22T00:58:29.214Z,75.43
2024-02-22T01:00:58.715Z,75.34
2024-02-22T01:03:32.796Z,75.01
2024-02-22T01:06:05.598Z,74.76
2024-02-22T01:08:35.301Z,74.89
2024-02-22T01:11:06.098Z,74.62
2024-02-22T01:13:35.463Z,74.69
2024-02-22T01:16:07.267Z,74.84
2024-02-22T01:18:36.715Z,74.67
2024-02-22T01:21:07.332Z,74.80
2024-02-22T01:23:37.120Z,74.96
2024-02-22T01:26:07.742Z,74.99
2024-02-22T01:28:37.397Z,75.03
2024-02-22T01:31:08.114Z,74.84
2024-02-22T01:33:37.679Z,74.96
2024-02-22T01:36:08.979Z,75.00
2024-02-22T01:38:38.533Z,74.71
2024-02-22T01:41:09.349Z,74.96
2024-02-22T01:43:38.854Z,74.90
2024-02-22T01:46:09.541Z,74.87
2024-02-22T01:48:39.037Z,74.84
2024-02-22T01:51:09.778Z,74.84
2024-02-22T01:53:39.289Z,75.07
2024-02-22T01:56:09.910Z,74.88
2024-02-22T01:58:39.602Z,74.82
2024-02-22T02:01:12.372Z,74.93
2024-02-22T02:03:41.754Z,74.84
2024-02-22T02:06:12.581Z,74.75
2024-02-22T02:08:41.946Z,74.71
2024-02-22T02:11:12.566Z,74.79
2024-02-22T02:13:41.992Z,74.49
2024-02-22T02:16:12.505Z,74.64
2024-02-22T02:18:41.984Z,74.36
2024-02-22T02:21:20.829Z,74.16
2024-02-22T02:24:09.901Z,73.72
2024-02-22T02:26:40.808Z,73.65
2024-02-22T02:29:10.318Z,73.12
2024-02-22T02:31:41.015Z,72.95
2024-02-22T02:34:10.409Z,72.41
2024-02-22T02:36:41.113Z,72.03
2024-02-22T02:39:10.402Z,71.95
2024-02-22T02:41:40.933Z,71.71
2024-02-22T02:44:10.314Z,71.69
2024-02-22T02:46:41.000Z,71.30
2024-02-22T02:49:10.532Z,71.27
2024-02-22T02:51:41.518Z,70.88
2024-02-22T02:54:10.907Z,71.21
2024-02-22T02:56:41.540Z,70.93
2024-02-22T02:59:10.961Z,70.74
2024-02-22T03:01:48.494Z,70.61
2024-02-22T03:04:19.389Z,70.36
2024-02-22T03:06:49.223Z,70.24
2024-02-22T03:09:20.348Z,69.65
2024-02-22T03:11:49.907Z,69.37
2024-02-22T03:14:20.965Z,69.02
2024-02-22T03:16:50.416Z,69.28
2024-02-22T03:19:21.013Z,68.87
2024-02-22T03:21:50.309Z,69.20
2024-02-22T03:24:21.719Z,68.88
2024-02-22T03:26:51.060Z,68.80
2024-02-22T03:29:23.164Z,68.82
2024-02-22T03:31:52.572Z,68.59
2024-02-22T03:34:23.933Z,68.26
2024-02-22T03:36:53.385Z,68.70
2024-02-22T03:39:23.899Z,67.84
2024-02-22T03:41:53.924Z,67.59
2024-02-22T03:44:24.553Z,67.48
2024-02-22T03:46:54.105Z,67.39
2024-02-22T03:49:24.727Z,66.67
2024-02-22T03:51:54.091Z,66.51
2024-02-22T03:54:24.722Z,66.61
2024-02-22T03:56:54.531Z,66.08
2024-02-22T03:59:25.272Z,66.09
2024-02-22T04:01:55.425Z,65.89
2024-02-22T04:04:29.298Z,65.97
2024-02-22T04:06:59.702Z,65.62
2024-02-22T04:09:30.553Z,65.56
2024-02-22T04:11:59.954Z,65.75
2024-02-22T04:14:30.686Z,65.71
2024-02-22T04:17:00.728Z,65.73
2024-02-22T04:19:31.389Z,66.05
2024-02-22T04:22:00.950Z,65.87
2024-02-22T04:24:31.671Z,65.92
2024-02-22T04:27:00.979Z,65.97
2024-02-22T04:29:31.573Z,66.27
2024-02-22T04:32:00.950Z,66.34
2024-02-22T04:34:32.618Z,66.52
2024-02-22T04:37:02.378Z,66.66
2024-02-22T04:39:32.915Z,66.56
2024-02-22T04:42:02.427Z,66.85
2024-02-22T04:44:33.043Z,66.64
2024-02-22T04:47:02.517Z,66.23
2024-02-22T04:49:33.234Z,66.42
2024-02-22T04:52:04.734Z,66.36
2024-02-22T04:54:41.338Z,66.28
2024-02-22T04:57:14.590Z,66.18
2024-02-22T04:59:43.885Z,66.35
2024-02-22T05:02:14.458Z,66.20
2024-02-22T05:04:43.966Z,66.09
2024-02-22T05:07:14.869Z,66.14
2024-02-22T05:09:44.274Z,66.02
2024-02-22T05:12:14.962Z,65.85
2024-02-22T05:14:47.471Z,66.28
2024-02-22T05:17:18.812Z,66.27
2024-02-22T05:19:51.217Z,66.37
2024-02-22T05:22:21.927Z,66.42
2024-02-22T05:24:51.230Z,66.54
2024-02-22T05:27:22.169Z,66.64
2024-02-22T05:29:51.578Z,66.70
2024-02-22T05:32:22.468Z,66.83
2024-02-22T05:34:52.077Z,66.69
2024-02-22T05:37:22.644Z,66.73
2024-02-22T05:39:51.945Z,66.88
2024-02-22T05:42:22.779Z,66.98
2024-02-22T05:44:52.486Z,67.09
2024-02-22T05:47:23.218Z,67.19
2024-02-22T05:49:52.946Z,67.14
2024-02-22T05:52:23.684Z,66.90
2024-02-22T05:54:52.960Z,67.05
2024-02-22T05:57:23.491Z,67.08
2024-02-22T05:59:52.787Z,67.17
2024-02-22T06:02:23.568Z,67.13
2024-02-22T06:04:53.185Z,67.17
2024-02-22T06:07:24.089Z,67.24
2024-02-22T06:09:53.781Z,67.28
2024-02-22T06:12:24.353Z,67.11
2024-02-22T06:14:53.720Z,67.27
2024-02-22T06:17:24.327Z,67.22
2024-02-22T06:19:53.978Z,67.52
2024-02-22T06:22:24.778Z,67.41
2024-02-22T06:24:54.182Z,67.66
2024-02-22T06:27:24.809Z,67.55
2024-02-22T06:29:54.230Z,67.50
2024-02-22T06:32:28.024Z,67.65
2024-02-22T06:34:57.991Z,67.73
2024-02-22T06:37:28.673Z,67.83
2024-02-22T06:39:58.035Z,67.95
2024-02-22T06:42:28.708Z,68.23
2024-02-22T06:44:58.005Z,68.11
2024-02-22T06:47:28.555Z,68.21
2024-02-22T06:49:58.053Z,68.13
2024-02-22T06:52:28.875Z,68.27
2024-02-22T06:54:58.577Z,68.46
2024-02-22T06:57:29.726Z,68.60
2024-02-22T06:59:59.329Z,68.81
2024-02-22T07:02:30.068Z,68.88
2024-02-22T07:04:59.387Z,68.91
2024-02-22T07:07:29.996Z,69.02
2024-02-22T07:09:59.306Z,69.47
2024-02-22T07:12:29.821Z,69.44
2024-02-22T07:14:59.128Z,69.97
2024-02-22T07:17:30.459Z,70.40
2024-02-22T07:20:00.026Z,70.95
2024-02-22T07:22:30.706Z,71.34
2024-02-22T07:25:00.412Z,71.42
2024-02-22T07:27:31.069Z,71.75
2024-02-22T07:30:00.414Z,72.14
2024-02-22T07:32:31.375Z,72.18
2024-02-22T07:35:01.991Z,72.54
2024-02-22T07:37:33.222Z,72.83
2024-02-22T07:40:02.490Z,73.15
2024-02-22T07:42:34.588Z,73.63
2024-02-22T07:45:05.595Z,74.22
2024-02-22T07:47:36.104Z,74.45
2024-02-22T07:50:05.967Z,75.08
2024-02-22T07:52:37.101Z,75.49
2024-02-22T07:55:07.787Z,75.90
2024-02-22T07:57:38.413Z,76.39
2024-02-22T08:00:10.773Z,76.60
2024-02-22T08:02:43.424Z,77.00
2024-02-22T08:05:13.106Z,77.19
2024-02-22T08:07:45.255Z,77.18
2024-02-22T08:10:15.971Z,77.40
2024-02-22T08:12:46.602Z,77.62
2024-02-22T08:15:16.732Z,77.51
2024-02-22T08:17:47.904Z,77.56
2024-02-22T08:20:17.660Z,77.45
2024-02-22T08:22:48.999Z,77.56
2024-02-22T08:25:18.804Z,77.43
2024-02-22T08:27:59.009Z,77.34
2024-02-22T08:30:37.612Z,77.22
2024-02-22T08:33:07.360Z,77.11
2024-02-22T08:35:38.055Z,77.03
2024-02-22T08:38:07.494Z,76.75
2024-02-22T08:40:47.357Z,76.77
2024-02-22T08:43:18.345Z,76.73
2024-02-22T08:45:50.721Z,76.56
2024-02-22T08:48:21.545Z,76.73
2024-02-22T08:50:50.959Z,76.74
2024-02-22T08:53:21.688Z,77.15
2024-02-22T08:55:51.648Z,77.37
2024-02-22T08:58:22.228Z,78.40
2024-02-22T09:00:51.682Z,79.10
2024-02-22T09:03:22.335Z,78.43
2024-02-22T09:05:52.075Z,77.37
2024-02-22T09:08:23.450Z,77.00
2024-02-22T09:10:56.208Z,76.81
2024-02-22T09:13:27.445Z,76.72
2024-02-22T09:15:57.157Z,76.55
2024-02-22T09:18:27.971Z,76.43
2024-02-22T09:20:57.660Z,76.27
2024-02-22T09:23:28.403Z,76.32
2024-02-22T09:25:57.818Z,75.82
2024-02-22T09:28:28.469Z,75.56
2024-02-22T09:30:59.024Z,75.25
2024-02-22T09:33:29.726Z,74.70
2024-02-22T09:35:59.652Z,74.38
2024-02-22T09:38:35.718Z,74.08
2024-02-22T09:41:07.608Z,73.83
2024-02-22T09:43:37.625Z,73.58
2024-02-22T09:46:08.967Z,73.55
2024-02-22T09:48:38.333Z,73.41
2024-02-22T09:51:09.064Z,73.03
2024-02-22T09:53:38.474Z,72.24
2024-02-22T09:56:11.000Z,71.62
2024-02-22T09:58:40.886Z,70.81
2024-02-22T10:01:11.555Z,70.38
2024-02-22T10:03:42.040Z,70.98
2024-02-22T10:06:19.653Z,70.42
2024-02-22T10:08:50.270Z,69.95
2024-02-22T10:11:21.474Z,69.29
2024-02-22T10:14:03.351Z,68.67
2024-02-22T10:16:34.140Z,68.44
2024-02-22T10:19:03.535Z,68.60
2024-02-22T10:21:34.266Z,68.13
2024-02-22T10:24:04.478Z,68.08
2024-02-22T10:26:35.030Z,68.48
2024-02-22T10:29:11.112Z,67.46
2024-02-22T10:31:41.890Z,67.73
2024-02-22T10:34:11.370Z,67.89
2024-02-22T10:36:42.348Z,67.47
2024-02-22T10:39:12.660Z,67.50
2024-02-22T10:41:43.197Z,68.05
2024-02-22T10:44:12.863Z,68.55
2024-02-22T10:46:43.657Z,69.22
2024-02-22T10:49:13.432Z,69.22
2024-02-22T10:51:44.492Z,68.89
2024-02-22T10:54:13.991Z,69.19
2024-02-22T10:56:44.889Z,69.28
2024-02-22T10:59:15.864Z,68.71
2024-02-22T11:01:47.464Z,68.14
2024-02-22T11:04:17.587Z,68.10
2024-02-22T11:06:49.609Z,68.48
2024-02-22T11:09:19.726Z,68.39
2024-02-22T11:11:53.113Z,68.83
2024-02-22T11:14:29.472Z,69.09
2024-02-22T11:17:01.520Z,69.44
2024-02-22T11:19:31.261Z,69.33
2024-02-22T11:22:01.912Z,69.81
2024-02-22T11:24:31.357Z,70.21
2024-02-22T11:27:02.226Z,70.32
2024-02-22T11:29:34.262Z,69.63
2024-02-22T11:32:06.374Z,69.66
2024-02-22T11:34:38.724Z,70.06
2024-02-22T11:37:18.551Z,70.48
2024-02-22T11:39:59.591Z,70.42
2024-02-22T11:42:31.209Z,70.30
2024-02-22T11:45:10.946Z,70.39
2024-02-22T11:47:41.647Z,70.63
2024-02-22T11:50:11.024Z,70.39
2024-02-22T11:52:43.134Z,70.30
2024-02-22T11:55:12.548Z,70.48
2024-02-22T11:57:43.543Z,70.77
2024-02-22T12:00:13.301Z,70.99
2024-02-22T12:02:44.750Z,71.19
2024-02-22T12:05:14.315Z,71.11
2024-02-22T12:07:45.051Z,71.24
2024-02-22T12:10:14.739Z,70.59
2024-02-22T12:12:45.424Z,70.12
2024-02-22T12:15:21.182Z,69.94
2024-02-22T12:17:54.596Z,69.73
2024-02-22T12:20:24.654Z,69.78
2024-02-22T12:22:56.745Z,69.44
2024-02-22T12:25:26.396Z,69.72
2024-02-22T12:27:58.147Z,69.13
2024-02-22T12:30:27.838Z,69.09
2024-02-22T12:32:57.994Z,69.45
2024-02-22T12:35:27.387Z,68.73
2024-02-22T12:37:58.620Z,68.25
2024-02-22T12:40:27.896Z,68.24
2024-02-22T12:42:58.503Z,68.60
2024-02-22T12:45:27.811Z,68.73
2024-02-22T12:47:58.525Z,68.56
2024-02-22T12:50:28.188Z,67.98
2024-02-22T12:52:58.816Z,67.75
2024-02-22T12:55:28.116Z,67.72
2024-02-22T12:57:59.117Z,66.99
2024-02-22T13:00:28.441Z,67.32
2024-02-22T13:02:59.346Z,66.80
2024-02-22T13:05:32.435Z,66.54
2024-02-22T13:08:08.235Z,66.67
2024-02-22T13:10:41.986Z,66.47
2024-02-22T13:13:11.753Z,66.80
2024-02-22T13:15:47.573Z,66.55
2024-02-22T13:18:16.978Z,66.21
2024-02-22T13:20:47.851Z,66.76
2024-02-22T13:23:17.369Z,66.87
2024-02-22T13:25:48.024Z,67.07
2024-02-22T13:28:18.011Z,67.08
2024-02-22T13:30:48.534Z,67.30
2024-02-22T13:33:18.226Z,68.03
2024-02-22T13:35:48.958Z,68.19
2024-02-22T13:38:18.519Z,68.06
2024-02-22T13:40:49.140Z,68.41
2024-02-22T13:43:18.880Z,68.89
2024-02-22T13:45:49.545Z,69.35
2024-02-22T13:48:19.173Z,68.54
2024-02-22T13:50:50.016Z,68.91
2024-02-22T13:53:19.448Z,69.31
2024-02-22T13:55:50.554Z,69.41
2024-02-22T13:58:19.832Z,69.38
2024-02-22T14:00:50.710Z,69.07
2024-02-22T14:03:20.171Z,69.32
2024-02-22T14:05:53.177Z,69.49
2024-02-22T14:08:23.746Z,69.48
2024-02-22T14:10:54.391Z,70.43
2024-02-22T14:13:25.173Z,69.94
2024-02-22T14:15:55.983Z,69.80
2024-02-22T14:18:25.751Z,70.28
2024-02-22T14:20:56.635Z,70.73
2024-02-22T14:23:26.024Z,71.69
2024-02-22T14:25:56.814Z,71.54
2024-02-22T14:28:26.380Z,72.38
2024-02-22T14:30:57.926Z,72.90
2024-02-22T14:33:27.929Z,73.43
2024-02-22T14:35:59.373Z,74.02
2024-02-22T14:38:29.607Z,74.55
2024-02-22T14:41:00.269Z,74.95
2024-02-22T14:43:29.659Z,75.48
2024-02-22T14:46:01.932Z,75.78
2024-02-22T14:48:33.299Z,76.24
2024-02-22T14:51:04.366Z,76.58
2024-02-22T14:53:37.287Z,76.67
2024-02-22T14:56:09.807Z,77.13
2024-02-22T14:58:41.735Z,77.30
2024-02-22T15:01:13.278Z,77.36
2024-02-22T15:03:42.576Z,77.29
2024-02-22T15:06:17.706Z,77.01
2024-02-22T15:08:49.280Z,76.97
2024-02-22T15:11:18.729Z,77.00
2024-02-22T15:13:52.098Z,76.70
2024-02-22T15:16:22.092Z,76.65
2024-02-22T15:18:52.764Z,76.47
2024-02-22T15:21:22.238Z,76.30
2024-02-22T15:23:53.661Z,76.60
2024-02-22T15:26:23.036Z,76.75
2024-02-22T15:28:53.838Z,76.85
2024-02-22T15:31:23.424Z,77.11
2024-02-22T15:34:01.451Z,77.24
2024-02-22T15:36:40.773Z,77.35
2024-02-22T15:39:10.120Z,77.44
2024-02-22T15:41:42.069Z,77.56
2024-02-22T15:44:12.695Z,77.67
2024-02-22T15:46:47.519Z,77.66
2024-02-22T15:49:17.159Z,77.70
2024-02-22T15:51:48.142Z,77.55
2024-02-22T15:54:17.742Z,77.45
2024-02-22T15:56:48.266Z,77.63
2024-02-22T15:59:17.628Z,77.53
2024-02-22T16:01:59.618Z,77.62
2024-02-22T16:04:30.632Z,77.49
2024-02-22T16:07:00.012Z,77.32
2024-02-22T16:09:31.351Z,77.37
2024-02-22T16:12:00.888Z,77.28
2024-02-22T16:14:31.763Z,77.35
2024-02-22T16:17:01.232Z,77.25
2024-02-22T16:19:32.098Z,77.44
2024-02-22T16:22:01.545Z,77.28
2024-02-22T16:24:35.135Z,77.34
2024-02-22T16:27:05.548Z,77.35
2024-02-22T16:29:37.888Z,77.48
2024-02-22T16:32:07.921Z,77.27
2024-02-22T16:34:40.367Z,77.32
2024-02-22T16:37:14.606Z,77.39
2024-02-22T16:39:45.950Z,77.22
2024-02-22T16:42:15.320Z,77.40
2024-02-22T16:44:45.925Z,77.46
2024-02-22T16:47:19.574Z,77.54
2024-02-22T16:49:50.422Z,77.55
2024-02-22T16:52:22.335Z,77.55
2024-02-22T16:54:54.779Z,77.58
2024-02-22T16:57:24.192Z,77.46
2024-02-22T16:59:55.536Z,77.52
2024-02-22T17:02:26.309Z,77.57
2024-02-22T17:04:59.200Z,77.62
2024-02-22T17:07:28.555Z,77.64
2024-02-22T17:09:59.089Z,77.68
2024-02-22T17:12:28.494Z,77.84
2024-02-22T17:14:59.216Z,77.80
2024-02-22T17:17:36.345Z,78.00
2024-02-22T17:20:07.739Z,77.92
2024-02-22T17:22:37.250Z,77.97
2024-02-22T17:25:11.422Z,77.90
2024-02-22T17:27:40.778Z,77.85
2024-02-22T17:30:13.138Z,77.99
2024-02-22T17:32:42.947Z,78.03
2024-02-22T17:35:16.841Z,78.06
2024-02-22T17:37:46.610Z,77.92
2024-02-22T17:40:17.422Z,78.01
2024-02-22T17:42:46.918Z,77.93
2024-02-22T17:45:17.858Z,77.94
2024-02-22T17:47:47.179Z,77.89
2024-02-22T17:50:17.702Z,77.84
2024-02-22T17:52:47.550Z,77.77
2024-02-22T17:55:18.348Z,77.76
2024-02-22T17:57:47.743Z,77.82
2024-02-22T18:00:25.822Z,77.85
2024-02-22T18:03:03.573Z,77.89
2024-02-22T18:05:36.802Z,77.95
2024-02-22T18:08:09.273Z,77.88
2024-02-22T18:10:40.046Z,77.75
2024-02-22T18:13:09.359Z,77.86
2024-02-22T18:15:40.378Z,77.87
2024-02-22T18:18:09.920Z,77.88
2024-02-22T18:20:42.434Z,77.70
2024-02-22T18:23:11.808Z,77.65
2024-02-22T18:25:42.530Z,77.52
2024-02-22T18:28:12.309Z,77.47
2024-02-22T18:30:44.885Z,77.47
2024-02-22T18:33:14.229Z,77.21
2024-02-22T18:35:44.865Z,77.25
2024-02-22T18:38:15.243Z,77.12
2024-02-22T18:40:45.868Z,76.92
2024-02-22T18:43:15.147Z,76.78
2024-02-22T18:45:45.770Z,76.75
2024-02-22T18:48:15.236Z,76.70
2024-02-22T18:50:45.929Z,76.62
2024-02-22T18:53:15.417Z,76.54
2024-02-22T18:55:45.969Z,76.30
2024-02-22T18:58:15.340Z,76.40
2024-02-22T19:00:46.316Z,76.46
2024-02-22T19:03:17.527Z,76.34
2024-02-22T19:05:49.433Z,76.45
2024-02-22T19:08:19.653Z,76.45
2024-02-22T19:10:50.354Z,76.51
2024-02-22T19:13:19.844Z,76.56
2024-02-22T19:15:50.369Z,76.50
2024-02-22T19:18:20.509Z,76.54
2024-02-22T19:20:53.485Z,76.46
2024-02-22T19:23:24.027Z,76.50
2024-02-22T19:25:56.116Z,76.45
2024-02-22T19:28:25.579Z,76.35
2024-02-22T19:30:56.604Z,76.40
2024-02-22T19:33:26.628Z,76.31
2024-02-22T19:35:57.403Z,76.24
2024-02-22T19:38:26.749Z,76.15
2024-02-22T19:41:05.315Z,75.96
2024-02-22T19:43:36.408Z,75.88
2024-02-22T19:46:05.748Z,75.84
2024-02-22T19:48:37.598Z,75.80
2024-02-22T19:51:07.296Z,75.87
2024-02-22T19:53:37.829Z,75.99
2024-02-22T19:56:07.712Z,76.00
2024-02-22T19:58:38.474Z,76.08
2024-02-22T20:01:08.033Z,76.09
2024-02-22T20:03:38.839Z,76.08
2024-02-22T20:06:08.764Z,76.17
2024-02-22T20:08:39.561Z,76.38
2024-02-22T20:11:11.909Z,76.45
2024-02-22T20:13:42.597Z,76.65
2024-02-22T20:16:11.872Z,76.83
2024-02-22T20:18:42.435Z,76.73
2024-02-22T20:21:12.173Z,76.94
2024-02-22T20:23:42.751Z,76.99
2024-02-22T20:26:12.105Z,77.15
2024-02-22T20:28:42.819Z,77.25
2024-02-22T20:31:12.789Z,77.48
2024-02-22T20:33:43.760Z,77.50
2024-02-22T20:36:13.351Z,77.58
2024-02-22T20:38:44.757Z,77.62
2024-02-22T20:41:17.879Z,77.68
2024-02-22T20:43:48.949Z,77.74
2024-02-22T20:46:18.519Z,77.73
2024-02-22T20:48:53.017Z,77.88
2024-02-22T20:51:29.799Z,77.83
2024-02-22T20:53:59.852Z,78.13
2024-02-22T20:56:33.277Z,78.04
2024-02-22T20:59:07.649Z,77.93
2024-02-22T21:01:37.274Z,77.86
2024-02-22T21:04:08.317Z,78.00
2024-02-22T21:06:37.893Z,78.00
2024-02-22T21:09:12.142Z,78.02
2024-02-22T21:11:44.048Z,78.01
2024-02-22T21:14:13.883Z,77.91
2024-02-22T21:16:46.735Z,77.89
2024-02-22T21:19:16.157Z,78.06
2024-02-22T21:21:46.824Z,78.14
2024-02-22T21:24:16.842Z,77.90
2024-02-22T21:26:47.426Z,77.87
2024-02-22T21:29:18.447Z,77.89
2024-02-22T21:31:50.845Z,77.93
2024-02-22T21:34:21.864Z,77.96
2024-02-22T21:36:52.414Z,77.84
2024-02-22T21:39:22.018Z,77.74
2024-02-22T21:41:52.580Z,77.65
2024-02-22T21:44:22.104Z,77.53
2024-02-22T21:46:54.137Z,77.41
2024-02-22T21:49:23.586Z,77.28
2024-02-22T21:51:54.082Z,77.23
2024-02-22T21:54:23.473Z,76.98
2024-02-22T21:56:54.103Z,76.99
2024-02-22T21:59:23.459Z,76.89
2024-02-22T22:04:42.186Z,76.89
2024-02-22T22:07:12.244Z,76.81
2024-02-22T22:09:43.135Z,76.73
2024-02-22T22:12:12.553Z,76.56
2024-02-22T22:14:43.189Z,76.64
2024-02-22T22:17:12.866Z,76.30
2024-02-22T22:19:43.844Z,76.27
2024-02-22T22:22:13.908Z,76.24
2024-02-22T22:24:44.558Z,76.26
2024-02-22T22:27:14.367Z,76.09
2024-02-22T22:29:44.902Z,76.13
2024-02-22T22:32:14.307Z,76.16
2024-02-22T22:34:45.162Z,76.29
2024-02-22T22:37:16.899Z,76.26
2024-02-22T22:39:47.929Z,76.37
2024-02-22T22:42:17.441Z,76.48
2024-02-22T22:44:50.141Z,76.48
2024-02-22T22:47:19.563Z,76.52
2024-02-22T22:49:50.950Z,76.47
2024-02-22T22:52:20.687Z,76.36
2024-02-22T22:54:51.468Z,76.39
2024-02-22T22:57:21.025Z,76.30
2024-02-22T22:59:53.335Z,76.17
2024-02-22T23:02:22.760Z,76.28
2024-02-22T23:04:54.049Z,76.26
2024-02-22T23:07:23.443Z,76.24
2024-02-22T23:09:54.512Z,76.21
2024-02-22T23:12:24.068Z,76.22
2024-02-22T23:14:56.458Z,76.16
2024-02-22T23:17:26.215Z,76.21
2024-02-22T23:19:57.121Z,76.27
2024-02-22T23:22:30.624Z,76.38
2024-02-22T23:25:01.289Z,76.41
2024-02-22T23:27:30.540Z,76.53
2024-02-22T23:30:01.988Z,76.55
2024-02-22T23:32:33.390Z,76.55
2024-02-22T23:35:05.110Z,76.47
2024-02-22T23:37:34.503Z,76.67
2024-02-22T23:40:05.843Z,76.82
2024-02-22T23:42:35.230Z,77.04
2024-02-22T23:45:06.790Z,77.09
2024-02-22T23:47:36.279Z,77.26
2024-02-22T23:50:08.000Z,77.36
2024-02-22T23:52:37.364Z,77.53
2024-02-22T23:55:09.119Z,77.52
2024-02-22T23:57:38.994Z,77.52
